Terminal Aerodrome Forecast
Issued by NWS

Home | Current Version | Previous Version | Text Only | Print | Product List | Glossary On
Versions: 1 2 3 4 5 6 7 8 9 10 11 12 13 14 15
000
FTUS43 KAPX 180543
TAFTVC
TAF
KTVC 180543Z 1806/1906 20008KT P6SM FEW250 WS015/24035KT
     FM181400 21009G15KT P6SM SKC
     FM181800 21013G26KT P6SM SKC
     FM182300 20009G16KT P6SM FEW200
     FM190500 20008G15KT P6SM BKN035=

USA.gov is the U.S. government's official web portal to all federal, state and local government web resources and services.